createdAt,value
2022-09-22T00:00:38.645Z,13.33
2022-09-22T00:01:38.625Z,13.23
2022-09-22T00:02:38.407Z,13.15
2022-09-22T00:03:38.716Z,13.18
2022-09-22T00:04:38.440Z,13.23
2022-09-22T00:05:38.466Z,13.13
2022-09-22T00:06:38.473Z,13.19
2022-09-22T00:07:38.761Z,13.2
2022-09-22T00:08:38.770Z,13.31
2022-09-22T00:09:38.802Z,13.27
2022-09-22T00:10:38.291Z,13.23
2022-09-22T00:11:38.979Z,13.27
2022-09-22T00:12:38.328Z,13.23
2022-09-22T00:13:38.859Z,13.2
2022-09-22T00:14:38.874Z,13.2
2022-09-22T00:15:38.683Z,13.19
2022-09-22T00:16:38.990Z,13.2
2022-09-22T00:17:38.921Z,13.23
2022-09-22T00:18:38.435Z,13.16
2022-09-22T00:19:38.965Z,13.13
2022-09-22T00:20:38.984Z,13.16
2022-09-22T00:21:38.954Z,13.2
2022-09-22T00:22:39.025Z,13.15
2022-09-22T00:23:39.028Z,13.11
2022-09-22T00:24:38.794Z,13.09
2022-09-22T00:25:38.552Z,13.12
2022-09-22T00:26:38.831Z,13.18
2022-09-22T00:27:38.899Z,13.13
2022-09-22T00:28:39.125Z,13.08
2022-09-22T00:29:38.873Z,13.13
2022-09-22T00:30:38.905Z,13.11
2022-09-22T00:31:39.449Z,13.15
2022-09-22T00:32:39.182Z,13.09
2022-09-22T00:33:39.203Z,13.05
2022-09-22T00:34:38.963Z,13.12
2022-09-22T00:35:39.250Z,13.09
2022-09-22T00:36:39.008Z,13.08
2022-09-22T00:37:39.273Z,13.12
2022-09-22T00:38:39.041Z,13.11
2022-09-22T00:39:39.314Z,13.13
2022-09-22T00:40:39.530Z,13.04
2022-09-22T00:41:39.358Z,13.04
2022-09-22T00:42:39.101Z,13.03
2022-09-22T00:43:39.175Z,13.04
2022-09-22T00:44:39.149Z,13.03
2022-09-22T00:45:39.159Z,13.11
2022-09-22T00:46:39.333Z,13.08
2022-09-22T00:47:39.478Z,13.04
2022-09-22T00:48:39.469Z,13
2022-09-22T00:49:38.976Z,13.04
2022-09-22T00:50:39.501Z,13.03
2022-09-22T00:51:39.012Z,13.04
2022-09-22T00:52:39.032Z,13.04
2022-09-22T00:53:39.552Z,13.03
2022-09-22T00:54:39.306Z,13.05
2022-09-22T00:55:39.581Z,13.04
2022-09-22T00:56:39.355Z,13.01
2022-09-22T00:57:39.108Z,13.04
2022-09-22T00:58:39.386Z,13.04
2022-09-22T00:59:39.469Z,13.04
2022-09-22T01:00:39.544Z,12.97
2022-09-22T01:01:39.414Z,13.01
2022-09-22T01:02:39.194Z,12.95
2022-09-22T01:03:39.753Z,12.98
2022-09-22T01:04:39.748Z,13.04
2022-09-22T01:05:39.501Z,12.97
2022-09-22T01:06:39.271Z,12.93
2022-09-22T01:07:39.539Z,12.95
2022-09-22T01:08:39.812Z,12.95
2022-09-22T01:09:39.842Z,12.98
2022-09-22T01:10:39.851Z,13
2022-09-22T01:11:39.862Z,12.98
2022-09-22T01:12:39.626Z,12.91
2022-09-22T01:13:39.643Z,12.95
2022-09-22T01:14:39.658Z,12.97
2022-09-22T01:15:40.214Z,12.95
2022-09-22T01:16:39.707Z,12.87
2022-09-22T01:17:39.715Z,12.93
2022-09-22T01:18:39.990Z,12.87
2022-09-22T01:19:39.771Z,12.93
2022-09-22T01:20:40.027Z,12.87
2022-09-22T01:21:40.293Z,12.91
2022-09-22T01:22:39.848Z,12.9
2022-09-22T01:23:40.075Z,12.91
2022-09-22T01:24:40.094Z,12.86
2022-09-22T01:25:39.849Z,12.86
2022-09-22T01:26:40.126Z,12.82
2022-09-22T01:27:40.159Z,12.85
2022-09-22T01:28:39.907Z,12.87
2022-09-22T01:29:39.926Z,12.9
2022-09-22T01:30:39.942Z,12.82
2022-09-22T01:31:40.440Z,12.79
2022-09-22T01:32:39.720Z,12.94
2022-09-22T01:33:39.995Z,12.73
2022-09-22T01:34:39.760Z,12.76
2022-09-22T01:35:40.317Z,12.76
2022-09-22T01:36:40.054Z,12.8
2022-09-22T01:37:40.066Z,12.75
2022-09-22T01:38:40.346Z,12.79
2022-09-22T01:39:40.363Z,12.83
2022-09-22T01:40:40.707Z,12.8
2022-09-22T01:41:40.408Z,12.79
2022-09-22T01:42:39.890Z,12.68
2022-09-22T01:43:39.933Z,12.86
2022-09-22T01:44:40.443Z,12.85
2022-09-22T01:45:39.949Z,12.78
2022-09-22T01:46:40.794Z,12.83
2022-09-22T01:47:40.282Z,12.79
2022-09-22T01:48:40.252Z,12.73
2022-09-22T01:49:40.527Z,12.79
2022-09-22T01:50:40.538Z,12.79
2022-09-22T01:51:40.333Z,12.79
2022-09-22T01:52:40.594Z,12.65
2022-09-22T01:53:40.597Z,12.76
2022-09-22T01:54:40.613Z,12.68
2022-09-22T01:55:40.639Z,12.75
2022-09-22T01:56:40.393Z,12.72
2022-09-22T01:57:40.678Z,12.75
2022-09-22T01:58:40.688Z,12.72
2022-09-22T01:59:40.706Z,12.72
2022-09-22T02:00:40.721Z,12.73
2022-09-22T02:01:40.879Z,12.67
2022-09-22T02:02:41.209Z,12.72
2022-09-22T02:03:40.821Z,12.73
2022-09-22T02:04:40.788Z,12.73
2022-09-22T02:05:40.553Z,12.64
2022-09-22T02:06:40.568Z,12.68
2022-09-22T02:07:40.614Z,12.67
2022-09-22T02:08:40.604Z,12.72
2022-09-22T02:09:40.871Z,12.62
2022-09-22T02:10:40.637Z,12.72
2022-09-22T02:11:40.908Z,12.62
2022-09-22T02:12:40.665Z,12.6
2022-09-22T02:13:40.687Z,12.7
2022-09-22T02:14:40.708Z,12.55
2022-09-22T02:15:41.024Z,12.65
2022-09-22T02:16:40.997Z,12.57
2022-09-22T02:17:40.760Z,12.57
2022-09-22T02:18:40.515Z,12.61
2022-09-22T02:19:40.844Z,12.61
2022-09-22T02:20:41.066Z,12.6
2022-09-22T02:21:41.484Z,12.58
2022-09-22T02:22:40.844Z,12.6
2022-09-22T02:23:40.887Z,12.57
2022-09-22T02:24:40.907Z,12.58
2022-09-22T02:25:40.903Z,12.62
2022-09-22T02:26:40.919Z,12.64
2022-09-22T02:27:40.953Z,12.6
2022-09-22T02:28:40.948Z,12.55
2022-09-22T02:29:40.703Z,12.46
2022-09-22T02:30:41.411Z,12.57
2022-09-22T02:31:41.243Z,12.5
2022-09-22T02:32:41.013Z,12.53
2022-09-22T02:33:42.984Z,12.54
2022-09-22T02:34:40.797Z,12.57
2022-09-22T02:35:41.371Z,12.49
2022-09-22T02:36:41.105Z,12.5
2022-09-22T02:37:41.101Z,12.57
2022-09-22T02:38:41.385Z,12.53
2022-09-22T02:39:41.189Z,12.42
2022-09-22T02:40:41.357Z,12.42
2022-09-22T02:41:41.427Z,12.42
2022-09-22T02:42:41.439Z,12.53
2022-09-22T02:43:41.207Z,12.45
2022-09-22T02:44:41.209Z,12.4
2022-09-22T02:45:41.490Z,12.49
2022-09-22T02:46:41.453Z,12.4
2022-09-22T02:47:41.529Z,12.4
2022-09-22T02:48:41.548Z,12.49
2022-09-22T02:49:41.303Z,12.45
2022-09-22T02:50:41.328Z,12.36
2022-09-22T02:51:41.651Z,12.46
2022-09-22T02:52:41.110Z,12.42
2022-09-22T02:53:41.641Z,12.42
2022-09-22T02:54:41.660Z,12.42
2022-09-22T02:55:41.695Z,12.42
2022-09-22T02:56:41.793Z,12.35
2022-09-22T02:57:41.702Z,12.46
2022-09-22T02:58:41.468Z,12.42
2022-09-22T02:59:41.741Z,12.36
2022-09-22T03:00:41.494Z,12.35
2022-09-22T03:01:41.829Z,12.29
2022-09-22T03:02:41.789Z,12.39
2022-09-22T03:03:41.807Z,12.32
2022-09-22T03:04:42.010Z,12.35
2022-09-22T03:05:41.348Z,12.42
2022-09-22T03:06:41.598Z,12.39
2022-09-22T03:07:41.916Z,12.37
2022-09-22T03:08:41.632Z,12.42
2022-09-22T03:09:41.652Z,12.37
2022-09-22T03:10:41.671Z,12.25
2022-09-22T03:11:41.968Z,12.27
2022-09-22T03:13:41.984Z,12.29
2022-09-22T03:14:41.992Z,12.27
2022-09-22T03:15:42.152Z,12.37
2022-09-22T03:16:41.772Z,12.28
2022-09-22T03:17:41.537Z,12.24
2022-09-22T03:18:41.802Z,12.28
2022-09-22T03:19:42.085Z,12.31
2022-09-22T03:20:41.837Z,12.22
2022-09-22T03:21:41.903Z,12.25
2022-09-22T03:22:42.125Z,12.28
2022-09-22T03:23:42.200Z,12.27
2022-09-22T03:24:41.650Z,12.28
2022-09-22T03:25:42.177Z,12.29
2022-09-22T03:26:42.267Z,12.22
2022-09-22T03:27:41.995Z,12.25
2022-09-22T03:28:42.303Z,12.25
2022-09-22T03:29:42.251Z,12.28
2022-09-22T03:30:41.897Z,12.32
2022-09-22T03:31:41.780Z,12.29
2022-09-22T03:32:42.256Z,12.31
2022-09-22T03:33:42.067Z,12.25
2022-09-22T03:34:42.334Z,12.22
2022-09-22T03:35:42.090Z,12.2
2022-09-22T03:36:42.114Z,12.24
2022-09-22T03:37:42.135Z,12.31
2022-09-22T03:38:42.391Z,12.22
2022-09-22T03:39:42.217Z,12.29
2022-09-22T03:40:42.475Z,12.25
2022-09-22T03:41:42.460Z,12.21
2022-09-22T03:42:41.951Z,12.25
2022-09-22T03:43:42.524Z,12.2
2022-09-22T03:44:41.991Z,12.21
2022-09-22T03:45:42.228Z,12.28
2022-09-22T03:46:42.282Z,12.18
2022-09-22T03:47:42.302Z,12.21
2022-09-22T03:48:47.687Z,12.29
2022-09-22T03:49:42.591Z,12.17
2022-09-22T03:50:42.361Z,12.2
2022-09-22T03:51:42.370Z,12.2
2022-09-22T03:52:42.743Z,12.12
2022-09-22T03:53:42.404Z,12.18
2022-09-22T03:54:42.421Z,12.12
2022-09-22T03:55:42.738Z,12.21
2022-09-22T03:56:42.731Z,12.24
2022-09-22T03:57:42.723Z,12.21
2022-09-22T03:58:42.240Z,12.12
2022-09-22T03:59:42.524Z,12.15
2022-09-22T04:00:42.535Z,12.2
2022-09-22T04:01:43.125Z,12.18
2022-09-22T04:02:43.009Z,12.18
2022-09-22T04:03:42.577Z,12.13
2022-09-22T04:04:42.842Z,12.17
2022-09-22T04:05:42.613Z,12.17
2022-09-22T04:06:42.884Z,12.18
2022-09-22T04:07:42.897Z,12.18
2022-09-22T04:08:42.915Z,12.2
2022-09-22T04:09:42.676Z,12.13
2022-09-22T04:10:42.961Z,12.13
2022-09-22T04:11:43.014Z,12.21
2022-09-22T04:12:42.982Z,12.21
2022-09-22T04:13:49.117Z,12.09
2022-09-22T04:14:43.015Z,12.12
2022-09-22T04:15:42.786Z,12.12
2022-09-22T04:16:43.036Z,12.07
2022-09-22T04:17:43.066Z,12.1
2022-09-22T04:18:42.836Z,12.12
2022-09-22T04:19:42.859Z,12.13
2022-09-22T04:20:43.324Z,12.1
2022-09-22T04:21:43.292Z,12.13
2022-09-22T04:22:42.889Z,12.17
2022-09-22T04:23:43.172Z,12.04
2022-09-22T04:24:43.187Z,12.06
2022-09-22T04:25:43.207Z,12.12
2022-09-22T04:27:43.008Z,12.13
2022-09-22T04:28:43.261Z,12.06
2022-09-22T04:29:43.011Z,12.1
2022-09-22T04:30:43.180Z,12.04
2022-09-22T04:31:43.334Z,12.06
2022-09-22T04:32:43.325Z,12.13
2022-09-22T04:33:43.086Z,12.06
2022-09-22T04:34:42.853Z,12.07
2022-09-22T04:35:43.374Z,12.07
2022-09-22T04:36:43.392Z,12.17
2022-09-22T04:37:43.411Z,12.04
2022-09-22T04:38:43.163Z,12.1
2022-09-22T04:39:43.481Z,12.13
2022-09-22T04:40:43.226Z,12.17
2022-09-22T04:41:42.970Z,12.1
2022-09-22T04:42:43.524Z,12.07
2022-09-22T04:43:43.540Z,12.04
2022-09-22T04:44:43.268Z,12.1
2022-09-22T04:45:44.802Z,12.13
2022-09-22T04:46:43.559Z,12.1
2022-09-22T04:47:43.352Z,12.09
2022-09-22T04:48:43.341Z,12.1
2022-09-22T04:49:43.364Z,12.13
2022-09-22T04:50:49.323Z,12.07
2022-09-22T04:51:43.660Z,12.02
2022-09-22T04:52:43.417Z,12.04
2022-09-22T04:53:43.687Z,12.13
2022-09-22T04:54:43.707Z,12.02
2022-09-22T04:55:43.727Z,12.04
2022-09-22T04:56:43.476Z,12.06
2022-09-22T04:57:43.758Z,12.03
2022-09-22T04:58:43.558Z,12.04
2022-09-22T04:59:43.815Z,11.99
2022-09-22T05:00:43.806Z,12.06
2022-09-22T05:01:44.166Z,12
2022-09-22T05:02:43.693Z,12.02
2022-09-22T05:03:43.742Z,12.04
2022-09-22T05:04:43.873Z,12
2022-09-22T05:05:43.641Z,11.99
2022-09-22T05:06:43.914Z,11.99
2022-09-22T05:07:43.663Z,12
2022-09-22T05:08:43.939Z,11.95
2022-09-22T05:09:43.968Z,12.04
2022-09-22T05:10:43.710Z,12
2022-09-22T05:11:43.743Z,11.9
2022-09-22T05:12:44.014Z,12.02
2022-09-22T05:13:43.770Z,11.95
2022-09-22T05:14:44.061Z,11.9
2022-09-22T05:15:44.082Z,11.87
2022-09-22T05:16:44.335Z,11.99
2022-09-22T05:17:43.840Z,11.95
2022-09-22T05:18:44.113Z,11.9
2022-09-22T05:19:44.156Z,11.84
2022-09-22T05:20:44.140Z,11.87
2022-09-22T05:21:43.909Z,11.94
2022-09-22T05:22:44.491Z,11.97
2022-09-22T05:23:44.203Z,12
2022-09-22T05:24:43.965Z,11.87
2022-09-22T05:25:43.974Z,11.91
2022-09-22T05:26:44.236Z,11.97
2022-09-22T05:27:44.016Z,11.94
2022-09-22T05:28:44.031Z,11.88
2022-09-22T05:29:44.046Z,11.99
2022-09-22T05:30:44.495Z,11.95
2022-09-22T05:31:44.538Z,11.8
2022-09-22T05:32:44.353Z,11.99
2022-09-22T05:33:43.883Z,11.94
2022-09-22T05:34:44.382Z,11.94
2022-09-22T05:35:44.416Z,12
2022-09-22T05:36:43.908Z,11.99
2022-09-22T05:37:44.171Z,11.87
2022-09-22T05:38:44.193Z,11.99
2022-09-22T05:39:44.476Z,11.95
2022-09-22T05:40:44.482Z,11.99
2022-09-22T05:41:44.243Z,11.91
2022-09-22T05:42:44.519Z,12
2022-09-22T05:43:44.537Z,12.03
2022-09-22T05:44:44.555Z,12.02
2022-09-22T05:45:44.486Z,12
2022-09-22T05:46:44.647Z,12.02
2022-09-22T05:47:44.630Z,12.04
2022-09-22T05:48:44.366Z,12.04
2022-09-22T05:49:44.633Z,12.09
2022-09-22T05:50:44.647Z,12.1
2022-09-22T05:51:44.448Z,12.09
2022-09-22T05:52:44.716Z,12.06
2022-09-22T05:53:44.713Z,12.09
2022-09-22T05:54:44.475Z,12.1
2022-09-22T05:55:44.507Z,12.12
2022-09-22T05:56:44.499Z,12.13
2022-09-22T05:57:44.514Z,12.09
2022-09-22T05:58:44.541Z,12.12
2022-09-22T05:59:44.545Z,12.1
2022-09-22T06:00:45.164Z,12.1
2022-09-22T06:01:44.610Z,12.09
2022-09-22T06:02:44.659Z,12.09
2022-09-22T06:03:44.896Z,12.17
2022-09-22T06:04:46.148Z,12.17
2022-09-22T06:05:44.931Z,12.2
2022-09-22T06:06:44.665Z,12.07
2022-09-22T06:07:45.025Z,12.06
2022-09-22T06:08:51.627Z,12.21
2022-09-22T06:09:44.719Z,12.17
2022-09-22T06:10:45.047Z,12.21
2022-09-22T06:11:44.761Z,12.15
2022-09-22T06:12:45.027Z,12.21
2022-09-22T06:13:45.045Z,12.21
2022-09-22T06:14:45.080Z,12.22
2022-09-22T06:15:45.085Z,12.17
2022-09-22T06:16:45.318Z,12.22
2022-09-22T06:17:44.861Z,12.22
2022-09-22T06:18:45.154Z,12.28
2022-09-22T06:19:45.180Z,12.35
2022-09-22T06:20:44.909Z,12.28
2022-09-22T06:21:44.939Z,12.35
2022-09-22T06:22:45.198Z,12.31
2022-09-22T06:23:47.813Z,12.29
2022-09-22T06:24:45.236Z,12.31
2022-09-22T06:25:44.994Z,12.29
2022-09-22T06:26:45.007Z,12.4
2022-09-22T06:27:45.407Z,12.31
2022-09-22T06:28:45.054Z,12.36
2022-09-22T06:29:45.326Z,12.36
2022-09-22T06:30:44.843Z,12.37
2022-09-22T06:31:45.549Z,12.39
2022-09-22T06:32:45.372Z,12.4
2022-09-22T06:33:45.132Z,12.42
2022-09-22T06:34:44.966Z,12.43
2022-09-22T06:35:45.641Z,12.45
2022-09-22T06:36:45.438Z,12.47
2022-09-22T06:37:45.203Z,12.47
2022-09-22T06:38:45.269Z,12.42
2022-09-22T06:39:45.519Z,12.54
2022-09-22T06:40:45.573Z,12.55
2022-09-22T06:41:45.527Z,12.58
2022-09-22T06:42:45.286Z,12.5
2022-09-22T06:43:45.076Z,12.54
2022-09-22T06:44:45.574Z,12.53
2022-09-22T06:45:45.541Z,12.54
2022-09-22T06:46:45.652Z,12.53
2022-09-22T06:47:45.380Z,12.55
2022-09-22T06:48:45.391Z,12.55
2022-09-22T06:49:45.670Z,12.6
2022-09-22T06:50:46.185Z,12.54
2022-09-22T06:51:45.725Z,12.57
2022-09-22T06:52:45.451Z,12.62
2022-09-22T06:53:48.629Z,12.58
2022-09-22T06:54:45.493Z,12.72
2022-09-22T06:55:45.811Z,12.67
2022-09-22T06:56:45.777Z,12.72
2022-09-22T06:57:45.291Z,12.68
2022-09-22T06:59:13.674Z,12.73
2022-09-22T06:59:45.834Z,12.68
2022-09-22T07:00:46.497Z,12.7
2022-09-22T07:01:46.293Z,12.68
2022-09-22T07:02:45.638Z,12.68
2022-09-22T07:03:45.654Z,12.82
2022-09-22T07:04:45.920Z,12.82
2022-09-22T07:05:45.961Z,12.8
2022-09-22T07:06:46.000Z,12.76
2022-09-22T07:07:45.743Z,12.76
2022-09-22T07:08:45.743Z,12.79
2022-09-22T07:09:45.755Z,12.85
2022-09-22T07:10:45.521Z,12.9
2022-09-22T07:11:45.818Z,12.93
2022-09-22T07:12:46.061Z,12.94
2022-09-22T07:13:46.084Z,12.94
2022-09-22T07:14:46.114Z,13
2022-09-22T07:15:46.132Z,13.03
2022-09-22T07:16:46.143Z,12.97
2022-09-22T07:17:45.894Z,13.08
2022-09-22T07:18:46.171Z,13.01
2022-09-22T07:19:46.184Z,13.09
2022-09-22T07:20:45.940Z,13.03
2022-09-22T07:21:45.960Z,13.09
2022-09-22T07:22:46.273Z,13.13
2022-09-22T07:23:46.280Z,13.13
2022-09-22T07:24:46.275Z,13.2
2022-09-22T07:25:46.031Z,13.23
2022-09-22T07:26:46.055Z,13.23
2022-09-22T07:27:46.093Z,13.31
2022-09-22T07:28:45.833Z,13.27
2022-09-22T07:29:46.357Z,13.28
2022-09-22T07:30:46.382Z,13.31
2022-09-22T07:31:46.989Z,13.3
2022-09-22T07:32:46.417Z,13.37
2022-09-22T07:33:46.171Z,13.44
2022-09-22T07:34:46.484Z,13.39
2022-09-22T07:35:46.480Z,13.39
2022-09-22T07:36:46.227Z,13.41
2022-09-22T07:37:46.510Z,13.41
2022-09-22T07:38:46.551Z,13.49
2022-09-22T07:39:46.554Z,13.47
2022-09-22T07:40:46.486Z,13.46
2022-09-22T07:41:46.744Z,13.54
2022-09-22T07:42:46.334Z,13.59
2022-09-22T07:43:46.364Z,13.54
2022-09-22T07:44:49.222Z,13.53
2022-09-22T07:45:46.642Z,13.56
2022-09-22T07:46:46.569Z,13.6
2022-09-22T07:47:46.433Z,13.56
2022-09-22T07:48:46.705Z,13.63
2022-09-22T07:49:46.733Z,13.62
2022-09-22T07:50:46.731Z,13.62
2022-09-22T07:51:46.491Z,13.68
2022-09-22T07:52:46.771Z,13.72
2022-09-22T07:53:46.529Z,13.67
2022-09-22T07:54:46.566Z,13.72
2022-09-22T07:55:46.848Z,13.78
2022-09-22T07:56:46.586Z,13.71
2022-09-22T07:57:46.612Z,13.71
2022-09-22T07:58:46.878Z,13.71
2022-09-22T07:59:46.915Z,13.7
2022-09-22T08:00:46.565Z,13.75
2022-09-22T08:01:47.170Z,13.71
2022-09-22T08:02:46.950Z,13.75
2022-09-22T08:03:46.972Z,13.78
2022-09-22T08:04:46.734Z,13.72
2022-09-22T08:05:46.741Z,13.78
2022-09-22T08:06:46.757Z,13.81
2022-09-22T08:07:46.783Z,13.75
2022-09-22T08:08:46.543Z,13.87
2022-09-22T08:09:46.558Z,13.78
2022-09-22T08:10:47.111Z,13.75
2022-09-22T08:11:46.879Z,13.81
2022-09-22T08:12:46.862Z,13.83
2022-09-22T08:13:46.896Z,13.79
2022-09-22T08:14:46.911Z,13.77
2022-09-22T08:15:47.247Z,13.81
2022-09-22T08:16:47.210Z,13.86
2022-09-22T08:17:46.703Z,13.85
2022-09-22T08:18:46.976Z,13.72
2022-09-22T08:19:47.001Z,13.77
2022-09-22T08:20:49.557Z,13.85
2022-09-22T08:21:53.603Z,13.85
2022-09-22T08:22:47.050Z,13.86
2022-09-22T08:23:47.066Z,13.96
2022-09-22T08:24:47.340Z,13.86
2022-09-22T08:25:47.104Z,13.85
2022-09-22T08:26:52.635Z,13.86
2022-09-22T08:27:47.398Z,13.85
2022-09-22T08:28:47.154Z,13.86
2022-09-22T08:29:47.430Z,13.79
2022-09-22T08:30:47.451Z,13.86
2022-09-22T08:31:48.139Z,13.85
2022-09-22T08:32:47.489Z,13.85
2022-09-22T08:33:47.283Z,13.97
2022-09-22T08:34:47.529Z,13.9
2022-09-22T08:35:47.539Z,13.96
2022-09-22T08:36:47.643Z,13.99
2022-09-22T08:37:47.578Z,13.99
2022-09-22T08:38:47.334Z,13.97
2022-09-22T08:39:47.375Z,13.96
2022-09-22T08:40:47.531Z,13.99
2022-09-22T08:41:47.135Z,14.03
2022-09-22T08:42:47.705Z,14.04
2022-09-22T08:43:47.683Z,14.03
2022-09-22T08:44:47.474Z,14.04
2022-09-22T08:45:47.712Z,13.99
2022-09-22T08:46:48.037Z,14.08
2022-09-22T08:47:47.777Z,14.11
2022-09-22T08:48:47.509Z,14.03
2022-09-22T08:49:47.813Z,14.07
2022-09-22T08:50:47.818Z,14.05
2022-09-22T08:51:47.307Z,13.96
2022-09-22T08:52:47.841Z,13.99
2022-09-22T08:53:47.882Z,13.97
2022-09-22T08:54:47.365Z,14.03
2022-09-22T08:55:47.641Z,14
2022-09-22T08:56:47.919Z,14.07
2022-09-22T08:57:47.685Z,14.07
2022-09-22T08:58:47.741Z,13.99
2022-09-22T08:59:47.970Z,14.07
2022-09-22T09:00:47.988Z,14.07
2022-09-22T09:01:48.228Z,14.04
2022-09-22T09:02:47.976Z,14.08
2022-09-22T09:03:48.078Z,14.11
2022-09-22T09:04:48.070Z,14.04
2022-09-22T09:05:47.599Z,14.05
2022-09-22T09:06:47.850Z,14.11
2022-09-22T09:07:48.129Z,14.08
2022-09-22T09:08:47.882Z,14.11
2022-09-22T09:09:47.931Z,14.14
2022-09-22T09:10:48.169Z,14.1
2022-09-22T09:11:47.926Z,14.17
2022-09-22T09:12:47.959Z,14.08
2022-09-22T09:13:48.226Z,14.17
2022-09-22T09:14:48.298Z,14.14
2022-09-22T09:15:48.506Z,14.23
2022-09-22T09:16:48.016Z,14.2
2022-09-22T09:17:48.310Z,14.22
2022-09-22T09:18:48.053Z,14.22
2022-09-22T09:19:48.356Z,14.2
2022-09-22T09:20:48.089Z,14.2
2022-09-22T09:21:48.385Z,14.25
2022-09-22T09:22:52.122Z,14.18
2022-09-22T09:25:33.298Z,14.18
2022-09-22T09:26:32.831Z,14.32
2022-09-22T09:27:33.117Z,14.35
2022-09-22T09:28:33.222Z,14.29
2022-09-22T09:29:32.890Z,14.25
2022-09-22T09:30:33.502Z,14.35
2022-09-22T09:31:32.839Z,14.35
2022-09-22T09:32:33.202Z,14.3
2022-09-22T09:33:33.238Z,14.28
2022-09-22T09:34:33.235Z,14.32
2022-09-22T09:35:34.137Z,14.41
2022-09-22T09:36:33.276Z,14.33
2022-09-22T09:37:33.488Z,14.3
2022-09-22T09:38:33.313Z,14.41
2022-09-22T09:39:33.325Z,14.3
2022-09-22T09:40:33.595Z,14.29
2022-09-22T09:41:33.364Z,14.45
2022-09-22T09:42:33.190Z,14.44
2022-09-22T09:43:33.144Z,14.44
2022-09-22T09:44:33.159Z,14.43
2022-09-22T09:45:33.439Z,14.48
2022-09-22T09:46:33.650Z,14.43
2022-09-22T09:47:32.970Z,14.47
2022-09-22T09:48:33.494Z,14.5
2022-09-22T09:49:33.508Z,14.54
2022-09-22T09:50:33.538Z,14.48
2022-09-22T09:51:33.621Z,14.44
2022-09-22T09:52:33.416Z,14.47
2022-09-22T09:53:33.591Z,14.47
2022-09-22T09:54:33.604Z,14.48
2022-09-22T09:55:33.127Z,14.5
2022-09-22T09:56:33.133Z,14.6
2022-09-22T09:57:33.391Z,14.65
2022-09-22T09:58:33.673Z,14.48
2022-09-22T09:59:33.437Z,14.47
2022-09-22T10:00:33.454Z,14.5
2022-09-22T10:01:33.585Z,14.55
2022-09-22T10:02:33.548Z,14.58
2022-09-22T10:03:33.679Z,14.53
2022-09-22T10:04:33.782Z,14.62
2022-09-22T10:05:33.657Z,14.6
2022-09-22T10:06:33.298Z,14.62
2022-09-22T10:07:33.595Z,14.58
2022-09-22T10:08:33.866Z,14.59
2022-09-22T10:09:33.364Z,14.63
2022-09-22T10:10:33.634Z,14.59
2022-09-22T10:11:33.461Z,14.65
2022-09-22T10:12:33.940Z,14.63
2022-09-22T10:13:33.689Z,14.55
2022-09-22T10:14:33.453Z,14.55
2022-09-22T10:15:34.159Z,14.6
2022-09-22T10:16:33.751Z,14.6
2022-09-22T10:17:34.017Z,14.55
2022-09-22T10:18:34.092Z,14.54
2022-09-22T10:19:33.802Z,14.66
2022-09-22T10:20:34.142Z,14.69
2022-09-22T10:21:34.099Z,14.63
2022-09-22T10:22:37.729Z,14.7
2022-09-22T10:23:33.904Z,14.72
2022-09-22T10:24:34.001Z,14.69
2022-09-22T10:25:33.911Z,14.68
2022-09-22T10:26:33.924Z,14.78
2022-09-22T10:27:34.220Z,14.77
2022-09-22T10:28:34.236Z,14.81
2022-09-22T10:29:33.980Z,14.84
2022-09-22T10:30:34.263Z,14.82
2022-09-22T10:31:34.129Z,14.78
2022-09-22T10:32:34.036Z,14.79
2022-09-22T10:33:34.321Z,14.85
2022-09-22T10:34:34.532Z,14.86
2022-09-22T10:35:34.097Z,14.82
2022-09-22T10:36:34.123Z,14.86
2022-09-22T10:37:34.340Z,14.84
2022-09-22T10:38:34.514Z,14.89
2022-09-22T10:39:34.495Z,14.84
2022-09-22T10:40:34.659Z,14.85
2022-09-22T10:41:34.464Z,14.88
2022-09-22T10:42:34.485Z,14.99
2022-09-22T10:43:33.981Z,14.88
2022-09-22T10:44:53.416Z,14.89
2022-09-22T10:45:34.564Z,14.97
2022-09-22T10:46:34.496Z,15
2022-09-22T10:47:34.324Z,14.97
2022-09-22T10:48:34.361Z,14.99
2022-09-22T10:49:34.353Z,14.97
2022-09-22T10:50:34.699Z,14.99
2022-09-22T10:51:34.392Z,15.02
2022-09-22T10:52:34.679Z,15.03
2022-09-22T10:53:34.432Z,15.09
2022-09-22T10:54:34.441Z,15
2022-09-22T10:55:34.504Z,14.99
2022-09-22T10:56:34.730Z,15
2022-09-22T10:57:34.512Z,15.06
2022-09-22T10:58:34.514Z,15.07
2022-09-22T10:59:34.802Z,15.06
2022-09-22T11:00:39.192Z,15.14
2022-09-22T11:01:34.791Z,15.06
2022-09-22T11:02:34.855Z,15.07
2022-09-22T11:03:34.863Z,15.06
2022-09-22T11:04:35.169Z,15.15
2022-09-22T11:05:34.906Z,15.22
2022-09-22T11:06:34.982Z,15.19
2022-09-22T11:07:34.948Z,15.21
2022-09-22T11:08:34.713Z,15.22
2022-09-22T11:09:35.214Z,15.17
2022-09-22T11:10:35.012Z,15.22
2022-09-22T11:11:38.989Z,15.27
2022-09-22T11:12:34.771Z,15.35
2022-09-22T11:13:35.090Z,15.31
2022-09-22T11:14:34.819Z,15.31
2022-09-22T11:15:35.321Z,15.39
2022-09-22T11:16:34.853Z,15.42
2022-09-22T11:17:35.126Z,15.39
2022-09-22T11:18:39.651Z,15.43
2022-09-22T11:19:34.912Z,15.37
2022-09-22T11:20:35.188Z,15.31
2022-09-22T11:21:34.696Z,15.49
2022-09-22T11:22:35.341Z,15.52
2022-09-22T11:23:35.304Z,15.51
2022-09-22T11:24:35.270Z,15.52
2022-09-22T11:25:35.306Z,15.58
2022-09-22T11:26:35.048Z,15.52
2022-09-22T11:27:35.365Z,15.59
2022-09-22T11:28:35.078Z,15.61
2022-09-22T11:29:35.105Z,15.61
2022-09-22T11:30:35.516Z,15.61
2022-09-22T11:31:35.400Z,15.72
2022-09-22T11:32:34.901Z,15.75
2022-09-22T11:33:35.438Z,15.7
2022-09-22T11:34:35.460Z,15.72
2022-09-22T11:35:35.479Z,15.7
2022-09-22T11:36:35.485Z,15.62
2022-09-22T11:37:35.854Z,15.7
2022-09-22T11:38:35.576Z,15.77
2022-09-22T11:39:35.540Z,15.77
2022-09-22T11:40:35.814Z,15.8
2022-09-22T11:41:35.320Z,15.8
2022-09-22T11:42:35.366Z,15.76
2022-09-22T11:43:35.406Z,15.77
2022-09-22T11:44:35.647Z,15.76
2022-09-22T11:45:35.398Z,15.83
2022-09-22T11:46:35.517Z,15.88
2022-09-22T11:47:35.436Z,15.95
2022-09-22T11:48:35.717Z,16
2022-09-22T11:49:35.480Z,15.98
2022-09-22T11:50:35.497Z,15.97
2022-09-22T11:51:35.261Z,16.02
2022-09-22T11:52:35.534Z,16.04
2022-09-22T11:53:35.805Z,16
2022-09-22T11:54:35.878Z,16.02
2022-09-22T11:55:35.586Z,16.1
2022-09-22T11:56:35.610Z,16.08
2022-09-22T11:57:35.630Z,16.16
2022-09-22T11:58:35.648Z,16.13
2022-09-22T11:59:35.686Z,16.21
2022-09-22T12:00:35.706Z,16.21
2022-09-22T12:01:35.968Z,16.26
2022-09-22T12:02:35.909Z,16.29
2022-09-22T12:03:35.929Z,16.29
2022-09-22T12:04:36.020Z,16.35
2022-09-22T12:05:36.035Z,16.35
2022-09-22T12:06:36.062Z,16.36
2022-09-22T12:07:36.072Z,16.38
2022-09-22T12:08:36.100Z,16.39
2022-09-22T12:09:40.502Z,16.41
2022-09-22T12:10:36.149Z,16.35
2022-09-22T12:11:36.151Z,16.43
2022-09-22T12:12:36.199Z,16.42
2022-09-22T12:13:35.942Z,16.58
2022-09-22T12:14:35.959Z,16.54
2022-09-22T12:15:36.144Z,16.56
2022-09-22T12:16:35.991Z,16.58
2022-09-22T12:17:36.275Z,16.65
2022-09-22T12:18:36.295Z,16.58
2022-09-22T12:19:36.081Z,16.64
2022-09-22T12:20:36.102Z,16.69
2022-09-22T12:21:36.361Z,16.75
2022-09-22T12:22:35.861Z,16.66
2022-09-22T12:23:36.134Z,16.75
2022-09-22T12:24:36.426Z,16.78
2022-09-22T12:25:52.666Z,16.76
2022-09-22T12:26:35.934Z,16.81
2022-09-22T12:27:36.216Z,16.9
2022-09-22T12:28:36.494Z,16.93
2022-09-22T12:29:36.269Z,16.94
2022-09-22T12:30:36.431Z,16.87
2022-09-22T12:31:36.597Z,16.93
2022-09-22T12:32:36.588Z,16.97
2022-09-22T12:33:36.585Z,16.97
2022-09-22T12:34:36.344Z,16.93
2022-09-22T12:35:36.650Z,16.96
2022-09-22T12:36:36.640Z,16.93
2022-09-22T12:37:36.563Z,16.93
2022-09-22T12:38:36.437Z,16.96
2022-09-22T12:39:36.714Z,16.89
2022-09-22T12:40:36.707Z,16.97
2022-09-22T12:41:36.808Z,16.94
2022-09-22T12:42:36.774Z,16.89
2022-09-22T12:43:36.528Z,16.99
2022-09-22T12:44:36.550Z,16.94
2022-09-22T12:45:36.354Z,17.01
2022-09-22T12:46:36.842Z,16.96
2022-09-22T12:47:36.908Z,16.94
2022-09-22T12:48:36.889Z,16.96
2022-09-22T12:49:36.650Z,16.97
2022-09-22T12:50:36.661Z,16.97
2022-09-22T12:51:36.683Z,16.94
2022-09-22T12:52:36.707Z,17.02
2022-09-22T12:53:40.194Z,17.01
2022-09-22T12:54:36.784Z,17.02
2022-09-22T12:55:36.509Z,16.94
2022-09-22T12:56:37.044Z,17.02
2022-09-22T12:57:37.118Z,17.16
2022-09-22T12:58:37.083Z,17.05
2022-09-22T12:59:37.104Z,17.19
2022-09-22T13:00:37.967Z,17.14